createdAt,value
2018-08-31T00:00:39.076Z,15.80
2018-08-31T00:03:07.450Z,15.37
2018-08-31T00:05:55.608Z,16.03
2018-08-31T00:08:47.711Z,15.17
2018-08-31T00:13:26.249Z,13.20
2018-08-31T00:15:54.544Z,12.37
2018-08-31T00:18:22.826Z,13.07
2018-08-31T00:20:51.115Z,18.40
2018-08-31T00:23:24.248Z,15.70
2018-08-31T00:28:25.024Z,15.90
2018-08-31T00:31:50.765Z,18.43
2018-08-31T00:36:31.194Z,18.87
2018-08-31T00:41:21.492Z,14.30
2018-08-31T00:44:01.188Z,15.67
2018-08-31T00:46:29.485Z,15.37
2018-08-31T00:48:57.825Z,15.47
2018-08-31T00:51:26.125Z,16.17
2018-08-31T00:53:54.409Z,15.43
2018-08-31T00:56:22.688Z,17.20
2018-08-31T00:58:50.960Z,16.70
2018-08-31T01:01:19.267Z,16.27
2018-08-31T01:03:47.542Z,17.40
2018-08-31T01:06:15.829Z,17.87
2018-08-31T01:08:44.109Z,18.13
2018-08-31T01:11:12.401Z,15.40
2018-08-31T01:13:40.744Z,14.10
2018-08-31T01:16:09.061Z,14.93
2018-08-31T01:18:37.365Z,14.00
2018-08-31T01:21:05.931Z,14.30
2018-08-31T01:23:34.235Z,16.40
2018-08-31T01:26:02.514Z,17.83
2018-08-31T01:28:30.804Z,19.43
2018-08-31T01:30:59.089Z,16.67
2018-08-31T01:33:27.393Z,18.43
2018-08-31T01:35:55.689Z,16.30
2018-08-31T01:38:23.993Z,15.40
2018-08-31T01:40:52.285Z,17.93
2018-08-31T01:43:20.623Z,15.13
2018-08-31T01:45:48.972Z,16.50
2018-08-31T01:48:17.222Z,21.77
2018-08-31T01:50:50.815Z,17.60
2018-08-31T01:53:19.100Z,18.60
2018-08-31T01:55:47.384Z,19.97
2018-08-31T01:58:15.679Z,19.60
2018-08-31T02:00:43.960Z,17.33
2018-08-31T02:03:12.253Z,19.13
2018-08-31T02:05:40.529Z,20.20
2018-08-31T02:08:08.828Z,18.07
2018-08-31T02:10:37.116Z,20.60
2018-08-31T02:13:05.438Z,18.27
2018-08-31T02:15:33.721Z,20.03
2018-08-31T02:18:02.035Z,20.50
2018-08-31T02:20:30.335Z,21.27
2018-08-31T02:22:58.635Z,20.07
2018-08-31T02:25:26.964Z,22.07
2018-08-31T02:27:55.261Z,18.43
2018-08-31T02:30:23.625Z,19.23
2018-08-31T02:32:51.908Z,20.33
2018-08-31T02:35:20.218Z,18.40
2018-08-31T02:37:48.508Z,20.63
2018-08-31T02:40:16.804Z,20.83
2018-08-31T02:42:45.144Z,18.80
2018-08-31T02:45:13.469Z,18.27
2018-08-31T02:47:41.789Z,20.63
2018-08-31T02:50:10.144Z,19.70
2018-08-31T02:52:38.420Z,20.73
2018-08-31T02:55:06.750Z,21.33
2018-08-31T02:57:35.033Z,20.43
2018-08-31T03:00:03.325Z,20.70
2018-08-31T03:02:31.612Z,17.87
2018-08-31T03:04:59.909Z,21.27
2018-08-31T03:07:28.193Z,21.93
2018-08-31T03:09:56.494Z,20.77
2018-08-31T03:12:24.774Z,20.43
2018-08-31T03:14:53.044Z,20.20
2018-08-31T03:17:21.346Z,20.97
2018-08-31T03:19:49.620Z,22.10
2018-08-31T03:22:17.941Z,21.83
2018-08-31T03:24:46.262Z,22.07
2018-08-31T03:27:14.581Z,23.13
2018-08-31T03:29:42.888Z,22.17
2018-08-31T03:32:11.160Z,23.80
2018-08-31T03:34:39.465Z,23.43
2018-08-31T03:37:07.806Z,24.50
2018-08-31T03:39:36.896Z,22.97
2018-08-31T03:42:05.245Z,25.70
2018-08-31T03:44:33.541Z,25.37
2018-08-31T03:47:01.832Z,26.20
2018-08-31T03:49:30.145Z,26.03
2018-08-31T03:51:58.502Z,27.53
2018-08-31T03:54:26.821Z,24.50
2018-08-31T03:56:55.137Z,25.50
2018-08-31T03:59:23.429Z,29.00
2018-08-31T04:01:51.712Z,26.27
2018-08-31T04:04:19.999Z,26.30
2018-08-31T04:06:48.309Z,30.87
2018-08-31T04:09:16.593Z,25.80
2018-08-31T04:11:44.879Z,29.37
2018-08-31T04:14:13.241Z,30.83
2018-08-31T04:16:41.540Z,28.33
2018-08-31T04:19:15.001Z,29.43
2018-08-31T04:21:43.564Z,25.60
2018-08-31T04:24:12.673Z,24.97
2018-08-31T04:26:40.987Z,34.63
2018-08-31T04:29:09.467Z,35.10
2018-08-31T04:31:37.929Z,34.60
2018-08-31T04:34:06.812Z,34.53
2018-08-31T04:36:35.040Z,36.60
2018-08-31T04:39:03.527Z,35.40
2018-08-31T04:41:31.858Z,34.53
2018-08-31T04:44:00.149Z,35.73
2018-08-31T04:46:28.464Z,35.30
2018-08-31T04:48:56.744Z,33.60
2018-08-31T04:51:25.024Z,36.67
2018-08-31T04:53:53.304Z,34.23
2018-08-31T04:56:21.580Z,36.43
2018-08-31T04:58:49.922Z,35.50
2018-08-31T05:01:18.143Z,38.27
2018-08-31T05:03:46.485Z,37.30
2018-08-31T05:06:14.781Z,36.60
2018-08-31T05:08:43.089Z,33.83
2018-08-31T05:11:11.374Z,33.70
2018-08-31T05:13:40.080Z,34.80
2018-08-31T05:16:08.412Z,35.93
2018-08-31T05:18:36.685Z,31.27
2018-08-31T05:21:05.189Z,35.80
2018-08-31T05:23:33.484Z,29.27
2018-08-31T05:26:02.077Z,31.13
2018-08-31T05:28:30.424Z,30.60
2018-08-31T05:30:58.677Z,29.80
2018-08-31T05:33:27.024Z,31.20
2018-08-31T05:35:55.340Z,29.33
2018-08-31T05:38:23.677Z,28.17
2018-08-31T05:40:51.976Z,27.47
2018-08-31T05:43:20.257Z,31.70
2018-08-31T05:45:48.543Z,31.70
2018-08-31T05:48:16.842Z,29.87
2018-08-31T05:50:45.190Z,30.03
2018-08-31T05:53:13.470Z,31.43
2018-08-31T05:55:41.756Z,30.33
2018-08-31T05:58:10.062Z,30.03
2018-08-31T06:00:38.344Z,31.47
2018-08-31T06:03:06.690Z,32.80
2018-08-31T06:05:34.984Z,33.97
2018-08-31T06:08:03.281Z,33.27
2018-08-31T06:10:31.567Z,32.30
2018-08-31T06:12:59.885Z,33.13
2018-08-31T06:15:28.172Z,34.60
2018-08-31T06:17:56.446Z,30.07
2018-08-31T06:20:24.734Z,32.30
2018-08-31T06:22:53.033Z,32.93
2018-08-31T06:25:21.346Z,29.53
2018-08-31T06:27:49.632Z,30.33
2018-08-31T06:30:17.944Z,32.73
2018-08-31T06:32:46.244Z,34.27
2018-08-31T06:35:14.545Z,32.93
2018-08-31T06:37:42.838Z,33.63
2018-08-31T06:40:11.160Z,32.87
2018-08-31T06:42:39.444Z,34.87
2018-08-31T06:45:07.748Z,33.70
2018-08-31T06:47:36.032Z,34.23
2018-08-31T06:50:04.404Z,40.23
2018-08-31T06:52:32.713Z,34.87
2018-08-31T06:55:01.013Z,35.43
2018-08-31T06:57:29.289Z,35.20
2018-08-31T06:59:57.561Z,32.97
2018-08-31T07:02:25.888Z,35.60
2018-08-31T07:04:54.165Z,35.47
2018-08-31T07:07:22.476Z,35.00
2018-08-31T07:09:50.757Z,32.07
2018-08-31T07:12:19.135Z,36.30
2018-08-31T07:14:47.384Z,35.27
2018-08-31T07:17:15.677Z,37.50
2018-08-31T07:19:43.993Z,39.47
2018-08-31T07:22:12.478Z,35.83
2018-08-31T07:24:40.764Z,36.93
2018-08-31T07:27:09.041Z,37.73
2018-08-31T07:29:37.340Z,38.70
2018-08-31T07:32:06.088Z,36.40
2018-08-31T07:34:34.638Z,32.80
2018-08-31T07:37:03.254Z,31.47
2018-08-31T07:39:31.552Z,38.10
2018-08-31T07:42:00.132Z,37.43
2018-08-31T07:44:28.424Z,38.00
2018-08-31T07:46:56.708Z,38.90
2018-08-31T07:49:24.989Z,41.57
2018-08-31T07:51:53.266Z,42.27
2018-08-31T07:54:21.539Z,38.80
2018-08-31T07:56:49.805Z,39.93
2018-08-31T07:59:18.090Z,41.27
2018-08-31T08:01:46.362Z,40.13
2018-08-31T08:04:14.700Z,35.77
2018-08-31T08:06:42.986Z,41.37
2018-08-31T08:09:11.508Z,42.40
2018-08-31T08:11:39.764Z,43.77
2018-08-31T08:14:08.085Z,41.20
2018-08-31T08:16:36.366Z,45.07
2018-08-31T08:19:04.679Z,38.30
2018-08-31T08:21:32.965Z,41.17
2018-08-31T08:24:01.240Z,44.67
2018-08-31T08:26:29.539Z,38.30
2018-08-31T08:28:57.852Z,37.97
2018-08-31T08:31:26.107Z,38.87
2018-08-31T08:33:54.372Z,41.03
2018-08-31T08:36:22.842Z,41.97
2018-08-31T08:38:51.132Z,37.03
2018-08-31T08:41:19.433Z,36.00
2018-08-31T08:43:47.694Z,38.47
2018-08-31T08:46:15.986Z,36.77
2018-08-31T08:48:44.500Z,45.73
2018-08-31T08:51:12.546Z,91.50
2018-08-31T08:53:40.836Z,39.43
2018-08-31T08:56:09.120Z,42.40
2018-08-31T08:58:37.393Z,41.27
2018-08-31T09:01:05.740Z,42.87
2018-08-31T09:03:34.023Z,42.13
2018-08-31T09:06:02.296Z,44.70
2018-08-31T09:08:30.575Z,43.63
2018-08-31T09:10:58.888Z,43.53
2018-08-31T09:13:27.206Z,45.27
2018-08-31T09:15:55.537Z,44.20
2018-08-31T09:18:25.187Z,47.50
2018-08-31T09:20:53.641Z,42.57
2018-08-31T09:23:21.957Z,47.10
2018-08-31T09:25:50.348Z,58.83
2018-08-31T09:28:18.880Z,48.13
2018-08-31T09:30:47.513Z,50.07
2018-08-31T09:33:17.168Z,52.93
2018-08-31T09:35:45.576Z,44.77
2018-08-31T09:38:13.992Z,46.90
2018-08-31T09:40:42.240Z,49.10
2018-08-31T09:43:13.036Z,53.40
2018-08-31T09:45:41.774Z,47.23
2018-08-31T09:48:10.028Z,47.13
2018-08-31T09:50:38.325Z,50.00
2018-08-31T09:53:06.587Z,44.73
2018-08-31T09:55:34.863Z,42.23
2018-08-31T09:58:03.132Z,46.63
2018-08-31T10:00:36.701Z,45.77
2018-08-31T10:03:05.836Z,48.53
2018-08-31T10:05:34.216Z,56.97
2018-08-31T10:08:02.493Z,47.20
2018-08-31T10:10:30.798Z,43.67
2018-08-31T10:12:59.068Z,44.87
2018-08-31T10:15:27.334Z,40.57
2018-08-31T10:17:55.610Z,38.67
2018-08-31T10:20:23.894Z,41.63
2018-08-31T10:22:52.198Z,40.80
2018-08-31T10:25:20.532Z,56.03
2018-08-31T10:27:48.851Z,44.57
2018-08-31T10:30:17.535Z,37.90
2018-08-31T10:32:45.717Z,39.30
2018-08-31T10:35:14.199Z,37.67
2018-08-31T10:37:42.479Z,36.60
2018-08-31T10:40:10.787Z,41.83
2018-08-31T10:42:39.045Z,36.33
2018-08-31T10:45:07.933Z,39.53
2018-08-31T10:47:36.322Z,41.67
2018-08-31T10:50:05.647Z,38.63
2018-08-31T10:52:33.919Z,37.73
2018-08-31T10:55:02.798Z,43.10
2018-08-31T10:57:31.573Z,36.70
2018-08-31T10:59:59.881Z,40.20
2018-08-31T11:02:28.148Z,37.97
2018-08-31T11:04:56.433Z,32.37
2018-08-31T11:07:24.714Z,32.40
2018-08-31T11:09:53.048Z,35.83
2018-08-31T11:12:21.376Z,33.23
2018-08-31T11:14:49.649Z,32.13
2018-08-31T11:17:17.936Z,29.63
2018-08-31T11:19:46.218Z,30.03
2018-08-31T11:22:14.576Z,29.77
2018-08-31T11:24:42.872Z,28.10
2018-08-31T11:27:11.152Z,27.37
2018-08-31T11:29:39.417Z,24.47
2018-08-31T11:32:07.682Z,24.80
2018-08-31T11:34:35.964Z,23.93
2018-08-31T11:37:04.241Z,23.90
2018-08-31T11:39:32.575Z,22.63
2018-08-31T11:42:00.833Z,20.90
2018-08-31T11:44:29.130Z,21.40
2018-08-31T11:46:57.412Z,24.23
2018-08-31T11:49:25.697Z,22.30
2018-08-31T11:51:53.994Z,20.80
2018-08-31T11:54:22.277Z,22.10
2018-08-31T11:56:50.545Z,21.40
2018-08-31T11:59:18.833Z,20.27
2018-08-31T12:01:47.111Z,23.43
2018-08-31T12:04:15.378Z,19.93
2018-08-31T12:06:43.652Z,20.67
2018-08-31T12:09:11.921Z,21.40
2018-08-31T12:11:40.195Z,23.57
2018-08-31T12:14:08.493Z,27.80
2018-08-31T12:16:36.779Z,26.17
2018-08-31T12:19:05.063Z,18.43
2018-08-31T12:21:33.331Z,18.47
2018-08-31T12:24:01.609Z,20.10
2018-08-31T12:26:29.893Z,20.07
2018-08-31T12:28:58.177Z,23.33
2018-08-31T12:31:26.469Z,23.73
2018-08-31T12:33:54.875Z,23.00
2018-08-31T12:36:23.174Z,20.83
2018-08-31T12:38:51.449Z,21.33
2018-08-31T12:41:19.748Z,20.60
2018-08-31T12:43:48.109Z,20.27
2018-08-31T12:46:16.308Z,19.00
2018-08-31T12:48:44.587Z,18.70
2018-08-31T12:51:12.889Z,16.60
2018-08-31T12:53:41.176Z,17.80
2018-08-31T12:56:09.492Z,18.30
2018-08-31T12:58:37.794Z,18.70
2018-08-31T13:01:06.090Z,17.00
2018-08-31T13:03:34.376Z,21.30
2018-08-31T13:06:02.702Z,24.93
2018-08-31T13:08:31.007Z,20.03
2018-08-31T13:10:59.356Z,16.67
2018-08-31T13:13:27.616Z,17.10
2018-08-31T13:15:55.945Z,18.27
2018-08-31T13:18:24.225Z,15.60
2018-08-31T13:20:52.565Z,17.03
2018-08-31T13:23:20.865Z,15.70
2018-08-31T13:25:49.269Z,16.43
2018-08-31T13:28:17.564Z,16.87
